Time;durP1;ratioP1;P1;durP2;ratioP2;P2;SDS_P1;SDS_P2;PMS_P1;PMS_P2;Temp;Humidity;BMP_temperature;BMP_pressure;BME280_temperature;BME280_humidity;BME280_pressure;Samples;Min_cycle;Max_cycle;Signal;HPM_P1;HPM_P2
2024/04/03 00:02:04;;;;;;;3.05;1.10;;;;;;;11.36;48.42;100418.91;5009892;28;20410;-81
2024/04/03 00:04:31;;;;;;;2.45;0.98;;;;;;;11.38;48.29;100407.78;5011813;28;20034;-82
2024/04/03 00:06:58;;;;;;;2.42;1.25;;;;;;;11.38;48.08;100405.06;5013560;28;20064;-82
2024/04/03 00:09:27;;;;;;;1.95;0.95;;;;;;;11.38;48.23;100413.28;5010600;28;20042;-82
2024/04/03 00:11:53;;;;;;;2.05;0.88;;;;;;;11.36;48.54;100407.94;5007110;28;20041;-83
2024/04/03 00:14:20;;;;;;;3.13;1.15;;;;;;;11.36;48.62;100407.94;5023384;28;20050;-82
2024/04/03 00:16:46;;;;;;;3.22;1.58;;;;;;;11.36;48.52;100409.81;5001518;28;20417;-82
2024/04/03 00:19:13;;;;;;;3.10;1.00;;;;;;;11.37;48.38;100400.56;5010191;28;20520;-83
2024/04/03 00:21:39;;;;;;;3.28;1.20;;;;;;;11.38;48.59;100409.66;5008683;28;20045;-85
2024/04/03 00:24:06;;;;;;;2.00;0.90;;;;;;;11.38;48.55;100404.19;5011916;28;20228;-82
2024/04/03 00:26:34;;;;;;;2.13;0.98;;;;;;;11.40;48.47;100404.88;5008502;28;20549;-82
2024/04/03 00:29:01;;;;;;;2.65;1.00;;;;;;;11.35;49.00;100397.13;5018833;28;20042;-84
2024/04/03 00:31:28;;;;;;;3.35;1.10;;;;;;;11.34;48.99;100390.78;5013131;28;20045;-84
2024/04/03 00:33:55;;;;;;;2.13;1.00;;;;;;;11.38;48.85;100401.44;5010849;28;20053;-83
2024/04/03 00:36:21;;;;;;;2.95;1.10;;;;;;;11.35;48.92;100394.38;5013686;28;20113;-83
2024/04/03 00:38:48;;;;;;;2.38;1.17;;;;;;;11.37;48.85;100403.31;5020709;28;20128;-84
2024/04/03 00:41:15;;;;;;;3.53;1.05;;;;;;;11.36;49.28;100396.09;5011080;28;20049;-84
2024/04/03 00:43:43;;;;;;;2.45;1.20;;;;;;;11.38;48.80;100390.47;5006639;28;20080;-84
2024/04/03 00:46:10;;;;;;;3.50;1.10;;;;;;;11.36;49.03;100394.22;5008823;28;20042;-83
2024/04/03 00:48:37;;;;;;;2.58;0.90;;;;;;;11.37;48.84;100395.09;5016478;28;20046;-83
2024/04/03 00:51:04;;;;;;;4.00;1.08;;;;;;;11.36;48.94;100391.50;5009005;28;20053;-84
2024/04/03 00:53:32;;;;;;;2.42;1.00;;;;;;;11.35;48.95;100384.28;5008877;28;20529;-84
2024/04/03 00:55:59;;;;;;;2.50;0.98;;;;;;;11.33;49.01;100379.97;5027728;28;20060;-84
2024/04/03 00:58:27;;;;;;;2.47;0.90;;;;;;;11.34;49.11;100384.44;5011022;28;20042;-83
2024/04/03 01:00:54;;;;;;;2.05;0.90;;;;;;;11.35;49.39;100384.28;5028608;28;20033;-84
2024/04/03 01:03:21;;;;;;;2.85;0.90;;;;;;;11.29;49.17;100376.69;5030982;28;20114;-83
2024/04/03 01:06:00;;;;;;;1.83;0.80;;;;;;;11.31;50.56;100380.09;5015452;28;20038;-84
2024/04/03 01:08:27;;;;;;;1.98;0.93;;;;;;;11.25;49.49;100379.84;5010679;28;20038;-84
2024/04/03 01:10:53;;;;;;;1.65;0.90;;;;;;;11.21;49.50;100375.69;5027931;28;20045;-83
2024/04/03 01:13:21;;;;;;;2.30;0.90;;;;;;;11.22;49.45;100371.94;5028676;28;20129;-84
2024/04/03 01:15:54;;;;;;;2.53;0.90;;;;;;;11.19;50.55;100373.09;5024551;28;20037;-84
2024/04/03 01:18:21;;;;;;;1.50;0.90;;;;;;;11.14;50.05;100371.84;5024301;28;20046;-83
2024/04/03 01:20:47;;;;;;;1.95;0.98;;;;;;;11.13;49.63;100364.63;5039778;28;20037;-83
2024/04/03 01:23:14;;;;;;;2.58;0.90;;;;;;;11.14;49.79;100374.59;5025059;28;20038;-84
2024/04/03 01:25:41;;;;;;;2.15;1.00;;;;;;;11.13;49.98;100364.63;5027886;28;20057;-84
2024/04/03 01:28:09;;;;;;;3.40;1.08;;;;;;;11.11;50.28;100361.19;5035864;28;20228;-85
2024/04/03 01:30:36;;;;;;;1.85;1.00;;;;;;;11.08;49.98;100353.25;5030979;28;20041;-84
2024/04/03 01:33:04;;;;;;;2.78;1.10;;;;;;;11.08;50.52;100359.59;5045126;28;20509;-84
2024/04/03 01:35:30;;;;;;;2.38;1.10;;;;;;;11.09;50.49;100352.25;5026519;28;20045;-84
2024/04/03 01:37:58;;;;;;;2.38;0.98;;;;;;;11.06;50.21;100336.97;5033436;28;20390;-84
2024/04/03 01:40:24;;;;;;;1.83;1.02;;;;;;;11.07;50.50;100343.31;5027870;28;20056;-85
2024/04/03 01:42:53;;;;;;;2.25;0.95;;;;;;;11.05;50.36;100334.41;5029107;28;20068;-83
2024/04/03 01:45:19;;;;;;;1.73;0.95;;;;;;;11.05;50.37;100340.75;5040114;28;20040;-84
2024/04/03 01:47:48;;;;;;;3.53;1.10;;;;;;;11.03;50.58;100339.16;5049638;28;20053;-84
2024/04/03 01:50:18;;;;;;;1.88;0.93;;;;;;;11.05;51.00;100338.00;5021876;28;20053;-86
2024/04/03 01:52:46;;;;;;;3.10;1.15;;;;;;;11.04;50.55;100330.78;5023270;28;20789;-85
2024/04/03 01:55:12;;;;;;;2.70;1.08;;;;;;;11.03;50.69;100336.41;5035125;28;20104;-83
2024/04/03 01:57:39;;;;;;;3.22;1.10;;;;;;;11.03;50.60;100328.19;5030002;28;20087;-84
2024/04/03 02:00:07;;;;;;;4.22;1.30;;;;;;;11.04;50.52;100321.72;5016635;28;20041;-84
2024/04/03 02:02:35;;;;;;;3.42;1.05;;;;;;;11.02;50.98;100318.25;5013457;28;20642;-84
2024/04/03 02:05:01;;;;;;;2.03;1.13;;;;;;;11.02;50.99;100310.03;5017092;28;20091;-84
2024/04/03 02:07:30;;;;;;;2.00;1.00;;;;;;;11.01;50.99;100309.19;5016914;28;20092;-83
2024/04/03 02:09:56;;;;;;;1.80;1.00;;;;;;;11.02;51.14;100308.16;5013836;28;20041;-83
2024/04/03 02:12:23;;;;;;;2.30;0.90;;;;;;;10.98;50.94;100302.13;5012843;28;20037;-83
2024/04/03 02:14:49;;;;;;;2.72;1.17;;;;;;;10.99;50.99;100292.91;5011627;28;20115;-84
2024/04/03 02:17:18;;;;;;;3.28;1.25;;;;;;;11.03;50.78;100295.34;5015720;28;20092;-83
2024/04/03 02:19:44;;;;;;;2.03;1.00;;;;;;;10.98;51.07;100279.34;5011312;28;20042;-84
2024/04/03 02:22:11;;;;;;;2.30;1.05;;;;;;;10.97;50.94;100283.13;5010976;28;20034;-84
2024/04/03 02:24:37;;;;;;;2.35;1.05;;;;;;;10.98;50.92;100274.75;5016828;28;20041;-83
2024/04/03 02:27:05;;;;;;;2.53;1.10;;;;;;;10.97;50.87;100269.44;5017139;28;20509;-83
2024/04/03 02:29:31;;;;;;;2.83;1.00;;;;;;;10.99;51.15;100272.88;5009752;28;20136;-83
2024/04/03 02:31:58;;;;;;;2.83;1.17;;;;;;;10.98;51.37;100265.66;5013879;28;20049;-83
2024/04/03 02:34:26;;;;;;;3.20;1.23;;;;;;;10.98;51.07;100261.03;5003086;28;20061;-83
2024/04/03 02:36:53;;;;;;;2.40;1.10;;;;;;;10.95;51.37;100249.56;5009043;28;20049;-83
2024/04/03 02:39:19;;;;;;;3.00;1.23;;;;;;;10.97;50.95;100256.63;5005538;28;20454;-83
2024/04/03 02:41:46;;;;;;;2.97;1.25;;;;;;;10.95;51.15;100257.78;5016500;28;20045;-84
2024/04/03 02:44:12;;;;;;;3.65;1.23;;;;;;;10.96;51.42;100265.84;5007204;28;20061;-84
2024/04/03 02:46:39;;;;;;;4.43;1.50;;;;;;;10.96;50.87;100260.34;5017770;28;20608;-83
2024/04/03 02:49:05;;;;;;;4.18;1.42;;;;;;;10.93;51.40;100252.44;5005197;28;20050;-83
2024/04/03 02:51:34;;;;;;;5.78;1.90;;;;;;;10.94;51.14;100262.38;5025575;28;20096;-84
2024/04/03 02:54:00;;;;;;;5.85;1.50;;;;;;;10.91;51.39;100259.94;5007307;28;20037;-83
2024/04/03 02:56:27;;;;;;;3.63;1.40;;;;;;;10.91;50.99;100256.34;5025893;28;20052;-82
2024/04/03 02:58:53;;;;;;;3.08;1.30;;;;;;;10.89;51.44;100245.56;5005159;28;20061;-83
2024/04/03 03:01:21;;;;;;;3.35;1.60;;;;;;;10.88;51.45;100240.22;5005164;28;20049;-83
2024/04/03 03:03:47;;;;;;;3.22;1.20;;;;;;;10.87;51.54;100242.09;5007446;28;20092;-84
2024/04/03 03:06:14;;;;;;;3.42;1.50;;;;;;;10.84;51.50;100238.78;5011168;28;20232;-84
2024/04/03 03:08:42;;;;;;;3.47;1.65;;;;;;;10.87;51.07;100241.25;5012715;28;20041;-84
2024/04/03 03:11:09;;;;;;;3.55;1.60;;;;;;;10.85;51.58;100243.25;5012445;28;20052;-83
2024/04/03 03:13:35;;;;;;;4.30;1.42;;;;;;;10.82;51.26;100233.47;5012164;28;20044;-83
2024/04/03 03:16:03;;;;;;;4.22;1.60;;;;;;;10.84;51.32;100238.78;5015785;28;20063;-84
2024/04/03 03:18:32;;;;;;;3.45;1.42;;;;;;;10.81;51.52;100222.69;5012708;28;20033;-84
2024/04/03 03:21:00;;;;;;;4.60;1.50;;;;;;;10.78;51.42;100226.59;5011662;28;20109;-84
2024/04/03 03:23:26;;;;;;;3.85;2.20;;;;;;;10.78;51.41;100215.63;5006676;28;20114;-84
2024/04/03 03:25:57;;;;;;;5.03;1.35;;;;;;;10.79;51.51;100209.16;5023583;28;20092;-84
2024/04/03 03:28:23;;;;;;;4.13;1.70;;;;;;;10.75;51.40;100199.50;5010846;28;20042;-85
2024/04/03 03:30:52;;;;;;;4.07;1.60;;;;;;;10.73;51.78;100198.78;5004110;28;20509;-84
2024/04/03 03:33:18;;;;;;;3.30;1.55;;;;;;;10.73;51.53;100200.69;5005893;28;20096;-85
2024/04/03 03:35:51;;;;;;;3.00;1.70;;;;;;;10.75;51.71;100188.56;5018465;28;20056;-85
2024/04/03 03:38:19;;;;;;;3.33;1.50;;;;;;;10.69;51.50;100180.09;5008021;28;20041;-85
2024/04/03 03:40:46;;;;;;;2.72;1.42;;;;;;;10.67;51.20;100166.56;5015084;28;20045;-84
2024/04/03 03:43:16;;;;;;;3.65;1.85;;;;;;;10.68;51.47;100162.81;5010413;28;20060;-85
2024/04/03 03:45:44;;;;;;;4.00;2.03;;;;;;;10.69;51.46;100170.00;5009114;28;20124;-85
2024/04/03 03:48:11;;;;;;;3.88;2.00;;;;;;;10.69;51.35;100172.75;5015713;28;20033;-84
2024/04/03 03:53:23;;;;;;;5.63;1.90;;;;;;;10.65;51.79;100163.09;5011910;28;20057;-85
2024/04/03 03:55:50;;;;;;;3.63;1.70;;;;;;;10.63;51.33;100161.56;5009879;28;20037;-85
2024/04/03 03:58:20;;;;;;;4.60;1.85;;;;;;;10.66;51.64;100158.50;5018877;28;20049;-85
2024/04/03 04:00:48;;;;;;;4.60;1.80;;;;;;;10.66;51.54;100177.66;5013582;28;20038;-84
2024/04/03 04:03:15;;;;;;;4.35;1.90;;;;;;;10.64;51.61;100183.31;5016254;28;20044;-83
2024/04/03 04:05:42;;;;;;;3.95;1.55;;;;;;;10.62;51.67;100178.97;5017853;28;20045;-86
2024/04/03 04:08:08;;;;;;;3.53;1.70;;;;;;;10.62;51.58;100176.25;5023423;28;20052;-84
2024/04/03 04:10:35;;;;;;;4.05;1.80;;;;;;;10.61;51.84;100183.59;5024044;28;20052;-85
2024/04/03 04:13:01;;;;;;;4.45;1.70;;;;;;;10.62;51.99;100174.38;5015657;28;20056;-86
2024/04/03 04:15:30;;;;;;;4.50;2.08;;;;;;;10.64;52.04;100183.31;5020239;28;20401;-86
2024/04/03 04:17:56;;;;;;;4.32;1.85;;;;;;;10.64;51.89;100166.03;5013124;28;20053;-84
2024/04/03 04:20:23;;;;;;;4.78;2.15;;;;;;;10.62;51.80;100162.56;5011699;28;20057;-84
2024/04/03 04:22:49;;;;;;;5.63;2.47;;;;;;;10.61;52.01;100158.97;5001394;28;20049;-85
2024/04/03 04:25:16;;;;;;;5.18;2.45;;;;;;;10.64;52.21;100163.28;5010981;28;20045;-85
2024/04/03 04:27:43;;;;;;;7.07;2.50;;;;;;;10.65;51.59;100151.31;5005426;28;20330;-84
2024/04/03 04:30:10;;;;;;;4.90;2.15;;;;;;;10.66;51.78;100144.81;5002398;28;20088;-85
2024/04/03 04:32:41;;;;;;;4.20;1.80;;;;;;;10.65;52.09;100143.13;4999226;28;20049;-84
2024/04/03 04:35:08;;;;;;;3.85;1.77;;;;;;;10.62;51.75;100135.19;5007274;28;20034;-85
2024/04/03 04:37:34;;;;;;;5.22;1.80;;;;;;;10.60;51.53;100138.09;5022087;28;20418;-85
2024/04/03 04:40:02;;;;;;;4.70;2.38;;;;;;;10.58;51.50;100135.50;5007493;28;20053;-85
2024/04/03 04:42:28;;;;;;;4.18;1.80;;;;;;;10.58;52.06;100138.22;5001258;28;20042;-83
2024/04/03 04:44:55;;;;;;;3.20;1.70;;;;;;;10.58;52.06;100131.88;5025858;28;20091;-84
2024/04/03 04:47:22;;;;;;;4.40;1.63;;;;;;;10.55;51.96;100130.34;5005803;28;20041;-84
2024/04/03 04:49:50;;;;;;;4.40;1.70;;;;;;;10.55;52.27;100137.69;5009418;28;20049;-84
2024/04/03 04:52:17;;;;;;;4.35;1.58;;;;;;;10.52;51.62;100124.28;5004073;28;20050;-86
2024/04/03 04:54:44;;;;;;;4.75;1.80;;;;;;;10.49;51.76;100117.22;5019589;28;20277;-85
2024/04/03 04:57:14;;;;;;;3.45;1.60;;;;;;;10.51;51.80;100123.41;5006081;28;20037;-84
2024/04/03 04:59:42;;;;;;;3.90;1.98;;;;;;;10.49;51.89;100119.09;5005004;28;20060;-84
2024/04/03 05:02:09;;;;;;;4.15;1.67;;;;;;;10.48;51.78;100114.66;5010239;28;20540;-85
2024/04/03 05:04:35;;;;;;;3.40;1.65;;;;;;;10.47;51.55;100124.75;5013568;28;20140;-84
2024/04/03 05:07:07;;;;;;;3.17;1.73;;;;;;;10.50;52.11;100126.28;5015557;28;20414;-84
2024/04/03 05:09:34;;;;;;;4.45;1.80;;;;;;;10.45;52.00;100114.94;5004065;28;20046;-84
2024/04/03 05:12:01;;;;;;;4.35;1.50;;;;;;;10.45;51.83;100123.16;5015431;28;20366;-83
2024/04/03 05:14:27;;;;;;;2.75;1.40;;;;;;;10.43;52.09;100123.31;5014280;28;20042;-83
2024/04/03 05:16:54;;;;;;;3.70;1.60;;;;;;;10.45;52.29;100124.03;5008671;28;20153;-83
2024/04/03 05:19:22;;;;;;;3.35;1.60;;;;;;;10.46;52.21;100122.16;5015136;28;20045;-83
2024/04/03 05:21:49;;;;;;;5.85;1.60;;;;;;;10.45;52.14;100120.41;5029092;28;20029;-84
2024/04/03 05:24:17;;;;;;;4.63;1.52;;;;;;;10.46;52.27;100127.63;5003522;28;20045;-84
2024/04/03 05:26:44;;;;;;;4.22;1.63;;;;;;;10.45;51.86;100123.16;5012750;28;20053;-82
2024/04/03 05:29:10;;;;;;;3.70;1.40;;;;;;;10.44;52.14;100118.69;5016764;28;20037;-83
2024/04/03 05:31:38;;;;;;;3.60;1.67;;;;;;;10.43;52.03;100120.56;5009831;28;20049;-83
2024/04/03 05:34:04;;;;;;;3.47;1.42;;;;;;;10.47;52.20;100126.59;5012104;28;20574;-83
2024/04/03 05:36:32;;;;;;;3.50;1.35;;;;;;;10.46;52.12;100124.88;5006133;28;20046;-84
2024/04/03 05:38:58;;;;;;;4.18;1.60;;;;;;;10.46;52.45;100119.41;5014584;28;20556;-83
2024/04/03 05:41:27;;;;;;;4.60;1.73;;;;;;;10.49;52.12;100127.28;5014517;28;20498;-82
2024/04/03 05:43:53;;;;;;;5.28;1.90;;;;;;;10.48;52.52;100120.97;5010165;28;20038;-83
2024/04/03 05:46:20;;;;;;;4.68;1.80;;;;;;;10.49;52.46;100124.56;5013303;28;20065;-83
2024/04/03 05:48:46;;;;;;;4.15;1.77;;;;;;;10.51;52.09;100123.41;5008300;28;20050;-83
2024/04/03 05:51:14;;;;;;;2.40;1.52;;;;;;;10.52;52.72;100121.53;5018113;28;20120;-84
2024/04/03 05:53:40;;;;;;;3.83;1.50;;;;;;;10.54;52.71;100119.53;5014636;28;20046;-83
2024/04/03 05:56:08;;;;;;;4.03;1.90;;;;;;;10.52;52.09;100113.31;5012163;28;20050;-84
2024/04/03 05:58:36;;;;;;;5.55;2.08;;;;;;;10.58;52.20;100120.94;5019961;28;20053;-84
2024/04/03 06:01:06;;;;;;;5.18;1.80;;;;;;;10.57;52.20;100114.63;5020307;28;20053;-83
2024/04/03 06:03:32;;;;;;;5.25;1.90;;;;;;;10.57;52.44;100106.41;5008266;28;20064;-83
2024/04/03 06:06:00;;;;;;;4.03;1.75;;;;;;;10.60;52.25;100122.53;5013272;28;20049;-83
2024/04/03 06:08:26;;;;;;;4.45;1.92;;;;;;;10.60;52.16;100117.06;5013154;28;20060;-84
2024/04/03 06:10:54;;;;;;;4.20;1.92;;;;;;;10.62;52.37;100125.13;5015327;28;20046;-83
2024/04/03 06:13:20;;;;;;;4.95;2.05;;;;;;;10.60;52.30;100122.53;5021739;28;20103;-83
2024/04/03 06:23:48;;;;;;;4.32;1.80;;;;;;;10.54;52.14;100114.06;4947930;29;20066;-85
2024/04/03 06:26:18;;;;;;;4.13;1.80;;;;;;;10.55;52.21;100115.81;4997362;28;20053;-84
2024/04/03 06:28:51;;;;;;;5.10;1.80;;;;;;;10.59;52.40;100111.72;5008757;28;20033;-84
2024/04/03 06:31:22;;;;;;;4.07;1.50;;;;;;;10.60;52.64;100110.72;5012801;28;20501;-84
2024/04/03 06:34:13;;;;;;;4.18;1.70;;;;;;;10.59;52.70;100109.84;5011126;28;20129;-85
2024/04/03 06:39:55;;;;;;;3.10;1.40;;;;;;;10.58;52.48;100110.00;5031323;28;20044;-84
2024/04/03 06:47:26;;;;;;;2.15;1.40;;;;;;;10.55;52.93;100108.47;4949849;28;20046;-85
2024/04/03 06:50:07;;;;;;;3.95;1.60;;;;;;;10.57;53.01;100100.94;4949431;28;20148;-84
2024/04/03 06:53:27;;;;;;;3.17;1.48;;;;;;;10.54;53.09;100100.41;4947778;28;20042;-85
2024/04/03 06:56:38;;;;;;;3.85;1.52;;;;;;;10.55;53.42;100102.97;4970917;28;20629;-84
2024/04/03 06:59:50;;;;;;;3.80;1.67;;;;;;;10.50;53.00;100093.47;4944743;28;20054;-84
2024/04/03 07:02:22;;;;;;;3.47;1.50;;;;;;;10.58;52.38;100097.19;4959260;28;20078;-85
2024/04/03 07:13:27;;;;;;;4.70;1.85;;;;;;;10.52;53.57;100097.78;4940048;28;20315;-87
2024/04/03 07:20:37;;;;;;;4.45;1.65;;;;;;;10.51;53.50;100089.72;4875377;29;20051;-86
2024/04/03 07:23:04;;;;;;;4.38;1.60;;;;;;;10.53;53.11;100091.31;4889799;29;20044;-88
2024/04/03 07:28:50;;;;;;;4.95;1.85;;;;;;;10.62;53.74;100097.75;5010919;28;20049;-89
2024/04/03 07:31:41;;;;;;;3.97;1.42;;;;;;;10.62;53.22;100095.03;5017639;28;20105;-86
2024/04/03 07:34:31;;;;;;;3.00;1.45;;;;;;;10.63;52.98;100084.94;5008865;28;20112;-86
2024/04/03 07:37:12;;;;;;;3.45;1.42;;;;;;;10.67;53.20;100086.34;4988927;28;20038;-85
2024/04/03 07:39:43;;;;;;;3.67;1.70;;;;;;;10.67;52.78;100084.47;4999552;28;20080;-87
2024/04/03 07:42:14;;;;;;;3.75;1.60;;;;;;;10.72;53.03;100089.50;5016888;28;20093;-86
2024/04/03 07:44:51;;;;;;;3.15;1.50;;;;;;;10.77;53.49;100089.88;5001255;28;20316;-85
2024/04/03 07:47:26;;;;;;;4.28;1.80;;;;;;;10.73;53.15;100088.47;5010899;28;20042;-87
2024/04/03 07:50:08;;;;;;;4.18;1.70;;;;;;;10.80;52.80;100095.06;5005139;28;20547;-87
2024/04/03 07:53:12;;;;;;;4.25;1.75;;;;;;;10.77;53.42;100077.06;5010291;28;20388;-90
2024/04/03 07:55:47;;;;;;;3.55;1.50;;;;;;;10.75;53.01;100079.06;4976501;28;20077;-88
2024/04/03 07:58:27;;;;;;;3.80;1.50;;;;;;;10.80;53.58;100086.84;5008651;28;20049;-88
2024/04/03 08:01:01;;;;;;;4.70;1.52;;;;;;;10.84;53.56;100086.38;5000369;28;20041;-88
2024/04/03 08:03:29;;;;;;;4.55;1.77;;;;;;;10.83;53.16;100086.50;5011054;28;20052;-88
2024/04/03 08:06:05;;;;;;;4.53;1.77;;;;;;;10.81;52.92;100081.19;5005048;28;20045;-89
2024/04/03 08:12:26;;;;;;;4.03;1.80;;;;;;;10.84;53.44;100086.38;4919615;28;20130;-87
2024/04/03 08:18:44;;;;;;;3.17;1.50;;;;;;;10.85;52.95;100084.50;4960656;28;20599;-87
2024/04/03 08:21:16;;;;;;;3.40;1.30;;;;;;;10.86;52.62;100094.44;4956650;28;20400;-87
2024/04/03 08:23:43;;;;;;;3.72;1.30;;;;;;;10.83;52.58;100083.78;5006551;28;20117;-87
2024/04/03 08:26:13;;;;;;;2.53;1.40;;;;;;;10.87;52.37;100107.09;4995576;28;20045;-86
2024/04/03 08:29:03;;;;;;;3.83;1.30;;;;;;;10.83;52.85;100070.09;5006582;28;20047;-87
2024/04/03 08:32:05;;;;;;;2.28;1.20;;;;;;;10.83;52.32;100081.03;5024890;28;20097;-87
2024/04/03 08:34:34;;;;;;;3.40;1.30;;;;;;;10.82;52.20;100076.56;5008019;28;20041;-87
2024/04/03 08:37:14;;;;;;;;;;;;;;;;;;;;;
2024/04/03 08:39:53;;;;;;;3.80;1.42;;;;;;;10.80;52.76;100073.16;5044419;28;20085;-84
2024/04/03 08:43:10;;;;;;;3.58;1.30;;;;;;;10.81;52.54;100072.16;5037058;28;20022;-87
2024/04/03 08:46:13;;;;;;;3.08;1.42;;;;;;;10.85;53.31;100081.75;5028734;28;20041;-86
2024/04/03 08:48:52;;;;;;;3.40;1.40;;;;;;;10.85;52.97;100079.88;4997181;28;20120;-87
2024/04/03 08:51:45;;;;;;;3.65;1.30;;;;;;;10.88;53.29;100076.84;5007091;28;20124;-87
2024/04/03 08:54:35;;;;;;;2.97;1.38;;;;;;;10.87;53.05;100069.63;4996590;28;20050;-86
2024/04/03 08:57:19;;;;;;;2.65;1.30;;;;;;;10.91;52.79;100071.03;5007494;28;20061;-88
2024/04/03 08:59:46;;;;;;;4.78;1.55;;;;;;;10.89;52.78;100064.00;5001641;28;20406;-87
2024/04/03 09:05:23;;;;;;;3.05;1.33;;;;;;;10.91;52.90;100062.81;4991802;28;20054;-87
2024/04/03 09:08:10;;;;;;;3.72;1.42;;;;;;;10.95;53.56;100064.25;4979046;28;20070;-87
2024/04/03 09:10:47;;;;;;;3.33;1.50;;;;;;;10.98;52.81;100069.38;4985289;28;20574;-86
2024/04/03 09:13:16;;;;;;;3.08;1.38;;;;;;;10.99;52.91;100070.25;4988275;28;20274;-87
2024/04/03 09:15:53;;;;;;;2.05;1.13;;;;;;;11.03;52.69;100060.72;4992388;28;20046;-86
2024/04/03 09:19:03;;;;;;;2.17;1.13;;;;;;;10.98;52.99;100049.38;4985069;28;20047;-86
2024/04/03 09:21:30;;;;;;;4.53;1.30;;;;;;;11.02;52.85;100064.47;4991090;28;20038;-86
2024/04/03 09:24:07;;;;;;;3.20;1.20;;;;;;;11.04;52.69;100058.84;5011395;28;20030;-87
2024/04/03 09:26:45;;;;;;;3.53;1.30;;;;;;;11.06;52.70;100071.34;4990602;28;20050;-87
2024/04/03 09:29:15;;;;;;;3.25;1.15;;;;;;;11.04;52.27;100059.72;4990991;28;20051;-87
2024/04/03 09:31:50;;;;;;;2.45;1.27;;;;;;;11.04;52.27;100056.97;4980500;28;20062;-87
2024/04/03 09:34:38;;;;;;;3.15;1.40;;;;;;;11.04;52.65;100059.72;5008235;28;20053;-88
2024/04/03 09:37:04;;;;;;;3.17;1.30;;;;;;;11.06;52.38;100067.78;4992121;28;20497;-86
2024/04/03 09:39:32;;;;;;;2.88;1.30;;;;;;;11.07;52.72;100064.84;4996135;28;20039;-87
2024/04/03 09:42:03;;;;;;;2.63;1.30;;;;;;;11.11;52.79;100058.06;4990466;28;20042;-88
2024/04/03 09:44:32;;;;;;;2.88;1.17;;;;;;;11.11;52.69;100062.69;4995758;28;20048;-89
2024/04/03 09:47:05;;;;;;;1.80;1.00;;;;;;;11.11;52.76;100060.81;4991634;28;20578;-87
2024/04/03 09:49:46;;;;;;;2.60;1.15;;;;;;;11.09;52.26;100046.41;4998402;28;20065;-86
2024/04/03 09:52:15;;;;;;;2.28;1.20;;;;;;;11.09;52.90;100048.28;4980226;28;20091;-89
2024/04/03 09:54:45;;;;;;;3.15;1.20;;;;;;;11.10;52.71;100048.13;4989635;28;20075;-87
2024/04/03 09:57:11;;;;;;;3.75;1.23;;;;;;;11.13;52.89;100053.28;4986800;28;20617;-87
2024/04/03 09:59:42;;;;;;;1.67;1.00;;;;;;;11.12;52.58;100047.97;5005131;28;20133;-87
2024/04/03 10:02:11;;;;;;;2.25;1.10;;;;;;;11.15;52.73;100056.72;4987307;28;20038;-87
2024/04/03 10:04:39;;;;;;;2.63;1.10;;;;;;;11.16;52.45;100052.09;4985174;28;20050;-87
2024/04/03 10:07:17;;;;;;;2.35;1.08;;;;;;;11.16;52.83;100047.47;4982708;28;20053;-88
2024/04/03 10:09:52;;;;;;;2.45;0.90;;;;;;;11.17;52.68;100042.88;5000903;28;20161;-88
2024/04/03 10:12:25;;;;;;;1.60;0.90;;;;;;;11.18;52.77;100044.59;4996201;28;20076;-88
2024/04/03 10:14:59;;;;;;;1.73;0.77;;;;;;;11.21;52.69;100041.53;4991279;28;20126;-80
2024/04/03 10:17:37;;;;;;;1.63;0.90;;;;;;;11.22;52.25;100044.13;4984777;28;20039;-87
2024/04/03 10:20:12;;;;;;;2.35;0.90;;;;;;;11.23;52.73;100037.59;4978575;28;20112;-87
2024/04/03 10:22:47;;;;;;;2.03;1.00;;;;;;;11.25;52.66;100041.06;4993604;28;20120;-89
2024/04/03 10:25:16;;;;;;;2.35;0.75;;;;;;;11.27;52.67;100049.13;4991586;28;20145;-87
2024/04/03 10:27:49;;;;;;;1.83;0.70;;;;;;;11.31;52.30;100040.41;4972430;28;20556;-89
2024/04/03 10:30:27;;;;;;;1.60;0.70;;;;;;;11.31;52.50;100042.28;4983106;28;20046;-86
2024/04/03 10:32:58;;;;;;;1.65;0.70;;;;;;;11.33;52.06;100046.59;4988765;28;20096;-86
2024/04/03 10:36:07;;;;;;;;;;;;;;;;;;;;;
2024/04/03 10:38:41;;;;;;;1.58;0.70;;;;;;;11.35;52.05;100044.56;4985923;28;20080;-86
2024/04/03 10:41:40;;;;;;;1.33;0.82;;;;;;;11.36;51.86;100049.03;4980018;28;20069;-87
2024/04/03 10:44:41;;;;;;;1.73;0.70;;;;;;;11.35;52.32;100040.97;5005783;28;20481;-85
2024/04/03 10:47:17;;;;;;;0.65;0.60;;;;;;;11.39;51.92;100038.78;4991279;28;20042;-87
2024/04/03 10:56:43;;;;;;;1.15;0.60;;;;;;;11.42;51.44;100036.56;4990148;28;20060;-85
2024/04/03 10:59:15;;;;;;;2.22;0.55;;;;;;;11.47;51.35;100038.84;4986310;28;20118;-84
2024/04/03 11:01:42;;;;;;;1.60;0.60;;;;;;;11.46;51.36;100029.75;4984832;28;20038;-85
2024/04/03 11:04:11;;;;;;;1.13;0.52;;;;;;;11.47;51.38;100036.09;4993247;28;20057;-84
2024/04/03 11:06:42;;;;;;;0.57;0.40;;;;;;;11.49;51.61;100036.78;4983245;28;20038;-84
2024/04/03 11:09:26;;;;;;;2.00;0.80;;;;;;;11.53;51.15;100038.19;5002975;28;20554;-83
2024/04/03 11:12:01;;;;;;;1.05;0.40;;;;;;;11.54;50.93;100040.78;4974954;28;20041;-85
2024/04/03 11:14:38;;;;;;;0.57;0.52;;;;;;;11.53;51.33;100035.44;4999989;28;20073;-84
2024/04/03 11:17:23;;;;;;;1.17;0.50;;;;;;;11.57;51.21;100043.19;4982295;28;20577;-84
2024/04/03 11:20:10;;;;;;;1.02;0.50;;;;;;;11.58;51.45;100039.41;4984499;28;20053;-83
2024/04/03 11:22:37;;;;;;;0.70;0.50;;;;;;;11.55;50.93;100038.91;5009271;28;20045;-83
2024/04/03 11:25:23;;;;;;;1.27;0.65;;;;;;;11.60;50.88;100037.38;5005735;28;20048;-84
2024/04/03 11:27:49;;;;;;;1.60;0.50;;;;;;;11.62;51.42;100045.50;4995700;28;20061;-85
2024/04/03 11:30:33;;;;;;;0.50;0.40;;;;;;;11.65;51.12;100048.75;4987441;28;20398;-83
2024/04/03 11:33:07;;;;;;;1.08;0.50;;;;;;;11.68;51.59;100047.56;5001518;28;20038;-84
2024/04/03 11:35:42;;;;;;;0.75;0.50;;;;;;;11.66;51.45;100050.47;4993321;28;20041;-84
2024/04/03 11:38:27;;;;;;;1.88;0.50;;;;;;;11.69;51.41;100060.25;5002458;28;20408;-84
2024/04/03 11:41:04;;;;;;;0.52;0.40;;;;;;;11.68;51.25;100058.53;4988717;28;20087;-83
2024/04/03 11:43:43;;;;;;;1.20;0.52;;;;;;;11.69;51.57;100069.34;4988781;28;20046;-85
2024/04/03 11:46:10;;;;;;;0.70;0.60;;;;;;;11.68;51.72;100062.13;4983508;28;20089;-84
2024/04/03 11:48:54;;;;;;;0.98;0.50;;;;;;;11.72;51.78;100060.78;4992077;28;20073;-84
2024/04/03 11:51:59;;;;;;;1.23;0.50;;;;;;;11.69;51.89;100063.00;4994615;28;20057;-84
2024/04/03 11:54:29;;;;;;;1.45;0.65;;;;;;;11.66;51.85;100058.69;5003397;28;20276;-87
2024/04/03 11:57:21;;;;;;;1.25;0.40;;;;;;;11.71;51.87;100063.72;4975483;28;20046;-84
2024/04/03 11:59:56;;;;;;;0.73;0.47;;;;;;;11.68;51.71;100059.41;5004681;28;20046;-85
2024/04/03 12:02:24;;;;;;;1.45;0.55;;;;;;;11.72;52.21;100049.81;4987262;28;20042;-85
2024/04/03 12:04:50;;;;;;;0.85;0.45;;;;;;;11.72;51.80;100058.03;4985735;28;20054;-85
2024/04/03 12:07:19;;;;;;;1.33;0.40;;;;;;;11.73;51.81;100061.66;4987133;28;20129;-87
2024/04/03 12:09:46;;;;;;;2.10;0.70;;;;;;;11.73;52.38;100065.25;4979719;28;20475;-88
2024/04/03 12:12:15;;;;;;;0.70;0.40;;;;;;;11.76;52.39;100071.44;4981768;28;20054;-85
2024/04/03 12:14:43;;;;;;;0.60;0.40;;;;;;;11.74;52.39;100066.09;4981472;28;20421;-86
2024/04/03 12:17:10;;;;;;;0.80;0.43;;;;;;;11.74;52.24;100068.84;4982518;28;20410;-85
2024/04/03 12:19:44;;;;;;;0.40;0.40;;;;;;;11.77;52.32;100070.41;4998621;28;20425;-84
2024/04/03 12:22:12;;;;;;;1.77;0.60;;;;;;;11.77;52.59;100068.53;4983141;28;20050;-87
2024/04/03 12:24:38;;;;;;;1.25;0.60;;;;;;;11.80;52.59;100064.63;4986267;28;20034;-86
2024/04/03 12:27:08;;;;;;;1.58;0.55;;;;;;;11.81;52.21;100075.41;4985363;28;20137;-86
2024/04/03 12:29:39;;;;;;;1.00;0.50;;;;;;;11.85;52.40;100075.97;4983351;28;20061;-85
2024/04/03 12:32:07;;;;;;;1.05;0.50;;;;;;;11.82;52.08;100068.03;5003713;28;20070;-83
2024/04/03 12:34:33;;;;;;;0.75;0.40;;;;;;;11.82;52.42;100063.41;5010796;28;20034;-83
2024/04/03 12:37:02;;;;;;;0.82;0.35;;;;;;;11.81;52.54;100064.44;5003435;28;20102;-84
2024/04/03 12:39:28;;;;;;;0.40;0.40;;;;;;;11.84;52.35;100066.88;5007899;28;20046;-85
2024/04/03 12:41:55;;;;;;;0.60;0.43;;;;;;;11.81;52.45;100063.56;4991112;28;20463;-85